sensor_id;sensor_type;location;lat;lon;timestamp;P1;durP1;ratioP1;P2;durP2;ratioP2
15788;SDS011;59075;50.670;6.474;2022-08-24T05:02:21;918.90;;;857.20;;
15788;SDS011;59075;50.670;6.474;2022-08-24T05:04:48;903.13;;;842.13;;
15788;SDS011;59075;50.670;6.474;2022-08-24T05:07:15;913.40;;;851.93;;
15788;SDS011;59075;50.670;6.474;2022-08-24T05:09:43;916.47;;;854.83;;
15788;SDS011;59075;50.670;6.474;2022-08-24T05:12:11;899.80;;;838.93;;
15788;SDS011;59075;50.670;6.474;2022-08-24T05:14:37;912.67;;;850.97;;
15788;SDS011;59075;50.670;6.474;2022-08-24T05:17:04;919.03;;;857.23;;
15788;SDS011;59075;50.670;6.474;2022-08-24T05:19:33;906.77;;;845.50;;
15788;SDS011;59075;50.670;6.474;2022-08-24T05:21:59;910.43;;;849.17;;
15788;SDS011;59075;50.670;6.474;2022-08-24T05:24:26;906.93;;;845.47;;
15788;SDS011;59075;50.670;6.474;2022-08-24T05:26:53;909.80;;;848.37;;
15788;SDS011;59075;50.670;6.474;2022-08-24T05:29:21;925.17;;;862.53;;
15788;SDS011;59075;50.670;6.474;2022-08-24T05:31:48;909.47;;;848.07;;
15788;SDS011;59075;50.670;6.474;2022-08-24T05:34:14;901.60;;;840.30;;
15788;SDS011;59075;50.670;6.474;2022-08-24T05:36:42;904.70;;;843.57;;
15788;SDS011;59075;50.670;6.474;2022-08-24T05:39:11;924.10;;;861.00;;
15788;SDS011;59075;50.670;6.474;2022-08-24T05:41:39;916.13;;;854.40;;
15788;SDS011;59075;50.670;6.474;2022-08-24T05:44:06;913.37;;;851.90;;
15788;SDS011;59075;50.670;6.474;2022-08-24T05:46:34;909.30;;;847.93;;
15788;SDS011;59075;50.670;6.474;2022-08-24T05:49:02;914.77;;;852.90;;
15788;SDS011;59075;50.670;6.474;2022-08-24T05:51:29;912.10;;;850.60;;
15788;SDS011;59075;50.670;6.474;2022-08-24T05:53:58;906.53;;;845.27;;
15788;SDS011;59075;50.670;6.474;2022-08-24T05:56:28;916.13;;;854.37;;
15788;SDS011;59075;50.670;6.474;2022-08-24T05:58:55;909.13;;;847.83;;
15788;SDS011;59075;50.670;6.474;2022-08-24T06:01:23;923.83;;;861.90;;
15788;SDS011;59075;50.670;6.474;2022-08-24T06:03:52;920.10;;;858.10;;
15788;SDS011;59075;50.670;6.474;2022-08-24T06:06:20;920.87;;;858.90;;
15788;SDS011;59075;50.670;6.474;2022-08-24T06:08:48;909.80;;;848.27;;
15788;SDS011;59075;50.670;6.474;2022-08-24T06:11:20;917.80;;;855.83;;
15788;SDS011;59075;50.670;6.474;2022-08-24T06:13:48;910.33;;;848.73;;
15788;SDS011;59075;50.670;6.474;2022-08-24T06:16:15;912.27;;;850.57;;
15788;SDS011;59075;50.670;6.474;2022-08-24T06:18:42;909.70;;;848.37;;
15788;SDS011;59075;50.670;6.474;2022-08-24T06:21:10;914.23;;;852.63;;
15788;SDS011;59075;50.670;6.474;2022-08-24T06:23:40;909.30;;;847.97;;
15788;SDS011;59075;50.670;6.474;2022-08-24T06:26:08;923.40;;;861.50;;
15788;SDS011;59075;50.670;6.474;2022-08-24T06:28:55;914.77;;;853.30;;
15788;SDS011;59075;50.670;6.474;2022-08-24T06:31:22;899.77;;;838.97;;
15788;SDS011;59075;50.670;6.474;2022-08-24T06:33:50;911.10;;;849.63;;
15788;SDS011;59075;50.670;6.474;2022-08-24T06:36:17;916.77;;;855.20;;
15788;SDS011;59075;50.670;6.474;2022-08-24T06:38:43;907.80;;;846.43;;
15788;SDS011;59075;50.670;6.474;2022-08-24T06:41:10;905.20;;;844.03;;
15788;SDS011;59075;50.670;6.474;2022-08-24T06:43:37;909.80;;;848.77;;
15788;SDS011;59075;50.670;6.474;2022-08-24T06:46:06;910.80;;;849.23;;
15788;SDS011;59075;50.670;6.474;2022-08-24T06:48:33;907.87;;;846.57;;
15788;SDS011;59075;50.670;6.474;2022-08-24T06:51:00;917.03;;;855.43;;
15788;SDS011;59075;50.670;6.474;2022-08-24T06:53:26;909.83;;;848.60;;
15788;SDS011;59075;50.670;6.474;2022-08-24T06:55:54;917.60;;;855.70;;
15788;SDS011;59075;50.670;6.474;2022-08-24T06:58:23;913.83;;;852.20;;
15788;SDS011;59075;50.670;6.474;2022-08-24T07:00:50;917.20;;;855.63;;
15788;SDS011;59075;50.670;6.474;2022-08-24T07:03:20;915.50;;;854.07;;
15788;SDS011;59075;50.670;6.474;2022-08-24T07:05:48;909.53;;;848.40;;
15788;SDS011;59075;50.670;6.474;2022-08-24T07:08:16;907.87;;;846.60;;
15788;SDS011;59075;50.670;6.474;2022-08-24T07:10:43;913.17;;;851.80;;
15788;SDS011;59075;50.670;6.474;2022-08-24T07:13:09;914.33;;;852.77;;
15788;SDS011;59075;50.670;6.474;2022-08-24T07:15:36;915.47;;;854.07;;
15788;SDS011;59075;50.670;6.474;2022-08-24T07:18:03;912.20;;;850.77;;
15788;SDS011;59075;50.670;6.474;2022-08-24T07:20:35;929.20;;;867.13;;
15788;SDS011;59075;50.670;6.474;2022-08-24T07:23:02;929.13;;;867.03;;
15788;SDS011;59075;50.670;6.474;2022-08-24T07:25:30;917.60;;;855.77;;
15788;SDS011;59075;50.670;6.474;2022-08-24T07:27:57;910.03;;;848.73;;
15788;SDS011;59075;50.670;6.474;2022-08-24T07:30:24;921.50;;;859.60;;
15788;SDS011;59075;50.670;6.474;2022-08-24T07:32:52;914.87;;;853.43;;
15788;SDS011;59075;50.670;6.474;2022-08-24T07:35:18;917.20;;;855.53;;
15788;SDS011;59075;50.670;6.474;2022-08-24T07:37:47;920.87;;;859.13;;
15788;SDS011;59075;50.670;6.474;2022-08-24T07:40:14;920.00;;;858.17;;
15788;SDS011;59075;50.670;6.474;2022-08-24T07:42:42;920.07;;;858.33;;
15788;SDS011;59075;50.670;6.474;2022-08-24T07:45:12;906.37;;;845.33;;
15788;SDS011;59075;50.670;6.474;2022-08-24T07:47:39;916.70;;;855.13;;
15788;SDS011;59075;50.670;6.474;2022-08-24T07:50:06;920.13;;;858.40;;
15788;SDS011;59075;50.670;6.474;2022-08-24T07:52:34;920.27;;;858.37;;
15788;SDS011;59075;50.670;6.474;2022-08-24T07:55:02;909.97;;;848.87;;
15788;SDS011;59075;50.670;6.474;2022-08-24T07:57:29;917.47;;;855.87;;
15788;SDS011;59075;50.670;6.474;2022-08-24T07:59:57;927.93;;;865.50;;
15788;SDS011;59075;50.670;6.474;2022-08-24T08:02:24;913.37;;;851.90;;
15788;SDS011;59075;50.670;6.474;2022-08-24T08:04:53;916.50;;;854.83;;
15788;SDS011;59075;50.670;6.474;2022-08-24T08:07:20;934.67;;;872.30;;
15788;SDS011;59075;50.670;6.474;2022-08-24T08:09:47;920.63;;;858.90;;
15788;SDS011;59075;50.670;6.474;2022-08-24T08:12:16;922.30;;;860.40;;
15788;SDS011;59075;50.670;6.474;2022-08-24T08:14:43;924.17;;;862.27;;
15788;SDS011;59075;50.670;6.474;2022-08-24T08:17:10;923.10;;;861.30;;
15788;SDS011;59075;50.670;6.474;2022-08-24T08:19:38;919.43;;;857.67;;
15788;SDS011;59075;50.670;6.474;2022-08-24T08:22:07;919.00;;;857.23;;
15788;SDS011;59075;50.670;6.474;2022-08-24T08:24:51;917.63;;;855.83;;
15788;SDS011;59075;50.670;6.474;2022-08-24T08:27:19;918.00;;;856.23;;
15788;SDS011;59075;50.670;6.474;2022-08-24T08:29:49;917.13;;;855.40;;
15788;SDS011;59075;50.670;6.474;2022-08-24T08:32:16;925.70;;;863.83;;
15788;SDS011;59075;50.670;6.474;2022-08-24T08:34:44;922.13;;;860.23;;
15788;SDS011;59075;50.670;6.474;2022-08-24T08:37:12;918.40;;;856.63;;
15788;SDS011;59075;50.670;6.474;2022-08-24T08:39:39;920.13;;;858.17;;
15788;SDS011;59075;50.670;6.474;2022-08-24T08:45:11;920.03;;;858.37;;
15788;SDS011;59075;50.670;6.474;2022-08-24T08:47:57;920.83;;;859.07;;
15788;SDS011;59075;50.670;6.474;2022-08-24T08:50:56;919.33;;;857.57;;
15788;SDS011;59075;50.670;6.474;2022-08-24T08:53:41;918.50;;;856.70;;
15788;SDS011;59075;50.670;6.474;2022-08-24T08:56:33;921.80;;;859.90;;
15788;SDS011;59075;50.670;6.474;2022-08-24T08:59:06;938.27;;;875.33;;
15788;SDS011;59075;50.670;6.474;2022-08-24T09:01:44;930.50;;;868.27;;
15788;SDS011;59075;50.670;6.474;2022-08-24T09:04:28;922.83;;;860.97;;
15788;SDS011;59075;50.670;6.474;2022-08-24T09:07:23;925.90;;;863.93;;
15788;SDS011;59075;50.670;6.474;2022-08-24T09:10:00;925.10;;;863.03;;
15788;SDS011;59075;50.670;6.474;2022-08-24T09:12:43;922.93;;;860.77;;
15788;SDS011;59075;50.670;6.474;2022-08-24T09:15:32;930.23;;;867.93;;
15788;SDS011;59075;50.670;6.474;2022-08-24T09:18:15;920.97;;;859.20;;
15788;SDS011;59075;50.670;6.474;2022-08-24T09:21:00;916.73;;;855.07;;
15788;SDS011;59075;50.670;6.474;2022-08-24T09:23:30;923.00;;;861.00;;
15788;SDS011;59075;50.670;6.474;2022-08-24T09:26:05;929.83;;;867.70;;
15788;SDS011;59075;50.670;6.474;2022-08-24T09:28:42;938.77;;;876.17;;
15788;SDS011;59075;50.670;6.474;2022-08-24T09:31:27;930.67;;;868.40;;
15788;SDS011;59075;50.670;6.474;2022-08-24T09:34:15;924.43;;;862.23;;
15788;SDS011;59075;50.670;6.474;2022-08-24T09:36:52;928.03;;;865.67;;
15788;SDS011;59075;50.670;6.474;2022-08-24T09:45:32;923.40;;;861.37;;
15788;SDS011;59075;50.670;6.474;2022-08-24T09:54:40;931.33;;;869.00;;
15788;SDS011;59075;50.670;6.474;2022-08-24T09:57:42;924.90;;;862.77;;
15788;SDS011;59075;50.670;6.474;2022-08-24T10:00:23;930.07;;;867.67;;
15788;SDS011;59075;50.670;6.474;2022-08-24T10:02:58;927.47;;;865.17;;
15788;SDS011;59075;50.670;6.474;2022-08-24T10:05:41;934.03;;;871.37;;
15788;SDS011;59075;50.670;6.474;2022-08-24T10:08:21;934.37;;;871.70;;
15788;SDS011;59075;50.670;6.474;2022-08-24T10:11:00;944.07;;;880.97;;
15788;SDS011;59075;50.670;6.474;2022-08-24T10:13:37;941.47;;;878.40;;
15788;SDS011;59075;50.670;6.474;2022-08-24T10:16:16;926.80;;;864.47;;
15788;SDS011;59075;50.670;6.474;2022-08-24T10:18:55;930.87;;;868.53;;
15788;SDS011;59075;50.670;6.474;2022-08-24T10:21:39;924.20;;;862.10;;
15788;SDS011;59075;50.670;6.474;2022-08-24T10:24:23;940.27;;;877.43;;
15788;SDS011;59075;50.670;6.474;2022-08-24T10:27:07;929.90;;;867.47;;
15788;SDS011;59075;50.670;6.474;2022-08-24T10:29:55;945.53;;;882.40;;
15788;SDS011;59075;50.670;6.474;2022-08-24T10:32:42;944.37;;;881.13;;
15788;SDS011;59075;50.670;6.474;2022-08-24T10:35:19;939.50;;;876.47;;
15788;SDS011;59075;50.670;6.474;2022-08-24T10:44:36;946.37;;;883.13;;
15788;SDS011;59075;50.670;6.474;2022-08-24T10:47:11;940.70;;;877.57;;
15788;SDS011;59075;50.670;6.474;2022-08-24T10:49:57;956.97;;;892.83;;
15788;SDS011;59075;50.670;6.474;2022-08-24T10:55:33;946.87;;;883.63;;
15788;SDS011;59075;50.670;6.474;2022-08-24T10:58:12;947.43;;;883.97;;
15788;SDS011;59075;50.670;6.474;2022-08-24T11:00:54;959.30;;;895.40;;
15788;SDS011;59075;50.670;6.474;2022-08-24T11:03:22;949.80;;;886.33;;
15788;SDS011;59075;50.670;6.474;2022-08-24T11:05:51;955.37;;;891.27;;
15788;SDS011;59075;50.670;6.474;2022-08-24T11:08:20;946.43;;;883.07;;
15788;SDS011;59075;50.670;6.474;2022-08-24T11:11:02;953.80;;;889.80;;
15788;SDS011;59075;50.670;6.474;2022-08-24T11:13:33;958.50;;;894.70;;
15788;SDS011;59075;50.670;6.474;2022-08-24T11:16:01;958.40;;;894.23;;
15788;SDS011;59075;50.670;6.474;2022-08-24T11:18:44;953.00;;;889.37;;
15788;SDS011;59075;50.670;6.474;2022-08-24T11:21:15;963.83;;;899.70;;
15788;SDS011;59075;50.670;6.474;2022-08-24T11:23:58;948.70;;;885.13;;
15788;SDS011;59075;50.670;6.474;2022-08-24T11:26:27;955.73;;;891.90;;
15788;SDS011;59075;50.670;6.474;2022-08-24T11:28:58;955.10;;;891.30;;
15788;SDS011;59075;50.670;6.474;2022-08-24T11:31:27;959.27;;;895.23;;
15788;SDS011;59075;50.670;6.474;2022-08-24T11:33:57;958.10;;;894.20;;
15788;SDS011;59075;50.670;6.474;2022-08-24T11:36:25;946.57;;;883.10;;
15788;SDS011;59075;50.670;6.474;2022-08-24T11:39:08;961.20;;;896.90;;
15788;SDS011;59075;50.670;6.474;2022-08-24T11:41:40;959.37;;;895.17;;
15788;SDS011;59075;50.670;6.474;2022-08-24T11:44:20;957.80;;;893.77;;
15788;SDS011;59075;50.670;6.474;2022-08-24T11:46:59;960.37;;;896.37;;
15788;SDS011;59075;50.670;6.474;2022-08-24T11:49:31;961.93;;;897.57;;
15788;SDS011;59075;50.670;6.474;2022-08-24T11:52:08;952.77;;;889.03;;
15788;SDS011;59075;50.670;6.474;2022-08-24T11:54:42;964.80;;;900.30;;
15788;SDS011;59075;50.670;6.474;2022-08-24T11:57:14;960.00;;;895.80;;
15788;SDS011;59075;50.670;6.474;2022-08-24T11:59:45;961.23;;;897.07;;
15788;SDS011;59075;50.670;6.474;2022-08-24T12:02:16;967.60;;;902.97;;
15788;SDS011;59075;50.670;6.474;2022-08-24T12:04:51;974.90;;;909.93;;
15788;SDS011;59075;50.670;6.474;2022-08-24T12:07:25;963.17;;;899.00;;
15788;SDS011;59075;50.670;6.474;2022-08-24T12:10:06;961.13;;;896.93;;
15788;SDS011;59075;50.670;6.474;2022-08-24T12:12:43;968.53;;;903.83;;
15788;SDS011;59075;50.670;6.474;2022-08-24T12:15:17;966.00;;;901.67;;
15788;SDS011;59075;50.670;6.474;2022-08-24T12:17:51;961.70;;;897.50;;
15788;SDS011;59075;50.670;6.474;2022-08-24T12:20:25;953.80;;;889.73;;
15788;SDS011;59075;50.670;6.474;2022-08-24T12:22:56;966.53;;;901.83;;
15788;SDS011;59075;50.670;6.474;2022-08-24T12:25:27;973.30;;;908.57;;
15788;SDS011;59075;50.670;6.474;2022-08-24T12:28:13;963.70;;;899.30;;
15788;SDS011;59075;50.670;6.474;2022-08-24T12:30:50;972.20;;;907.40;;
15788;SDS011;59075;50.670;6.474;2022-08-24T12:33:19;963.40;;;899.10;;
15788;SDS011;59075;50.670;6.474;2022-08-24T12:35:54;966.27;;;901.77;;
15788;SDS011;59075;50.670;6.474;2022-08-24T12:38:25;960.00;;;895.73;;
15788;SDS011;59075;50.670;6.474;2022-08-24T12:40:54;963.60;;;898.93;;
15788;SDS011;59075;50.670;6.474;2022-08-24T12:43:24;968.43;;;903.73;;
15788;SDS011;59075;50.670;6.474;2022-08-24T12:45:55;966.33;;;901.90;;
15788;SDS011;59075;50.670;6.474;2022-08-24T12:48:27;961.03;;;896.77;;
15788;SDS011;59075;50.670;6.474;2022-08-24T12:51:01;978.87;;;913.67;;
15788;SDS011;59075;50.670;6.474;2022-08-24T12:53:39;971.53;;;906.70;;
15788;SDS011;59075;50.670;6.474;2022-08-24T12:56:22;976.30;;;911.20;;
15788;SDS011;59075;50.670;6.474;2022-08-24T12:59:13;976.27;;;910.47;;
15788;SDS011;59075;50.670;6.474;2022-08-24T13:01:54;960.93;;;896.80;;
15788;SDS011;59075;50.670;6.474;2022-08-24T13:04:29;972.57;;;907.63;;
15788;SDS011;59075;50.670;6.474;2022-08-24T13:06:59;974.13;;;909.13;;
15788;SDS011;59075;50.670;6.474;2022-08-24T13:09:31;976.93;;;911.93;;
15788;SDS011;59075;50.670;6.474;2022-08-24T13:15:24;977.07;;;911.93;;
15788;SDS011;59075;50.670;6.474;2022-08-24T13:21:33;982.87;;;916.83;;
15788;SDS011;59075;50.670;6.474;2022-08-24T13:30:26;968.77;;;903.87;;
15788;SDS011;59075;50.670;6.474;2022-08-24T13:33:02;979.33;;;913.87;;
15788;SDS011;59075;50.670;6.474;2022-08-24T13:35:35;977.13;;;911.87;;
15788;SDS011;59075;50.670;6.474;2022-08-24T13:38:26;973.93;;;908.87;;
15788;SDS011;59075;50.670;6.474;2022-08-24T13:41:11;972.73;;;907.87;;
15788;SDS011;59075;50.670;6.474;2022-08-24T13:43:48;965.83;;;901.23;;
15788;SDS011;59075;50.670;6.474;2022-08-24T13:46:20;972.67;;;907.67;;
15788;SDS011;59075;50.670;6.474;2022-08-24T13:48:54;968.03;;;903.17;;
15788;SDS011;59075;50.670;6.474;2022-08-24T13:51:32;973.23;;;907.73;;
15788;SDS011;59075;50.670;6.474;2022-08-24T13:54:07;980.83;;;915.57;;
15788;SDS011;59075;50.670;6.474;2022-08-24T13:56:56;972.20;;;907.23;;
15788;SDS011;59075;50.670;6.474;2022-08-24T13:59:35;976.50;;;911.27;;
15788;SDS011;59075;50.670;6.474;2022-08-24T14:02:21;973.67;;;908.80;;
15788;SDS011;59075;50.670;6.474;2022-08-24T14:04:57;976.47;;;911.23;;
15788;SDS011;59075;50.670;6.474;2022-08-24T14:07:33;984.17;;;918.43;;
15788;SDS011;59075;50.670;6.474;2022-08-24T14:10:21;985.00;;;919.47;;
15788;SDS011;59075;50.670;6.474;2022-08-24T14:13:03;977.47;;;912.30;;
15788;SDS011;59075;50.670;6.474;2022-08-24T14:15:45;986.60;;;920.90;;
15788;SDS011;59075;50.670;6.474;2022-08-24T14:18:36;974.10;;;909.07;;
15788;SDS011;59075;50.670;6.474;2022-08-24T14:21:09;976.93;;;911.67;;
15788;SDS011;59075;50.670;6.474;2022-08-24T14:23:45;973.83;;;908.67;;
15788;SDS011;59075;50.670;6.474;2022-08-24T14:35:11;984.17;;;918.47;;
15788;SDS011;59075;50.670;6.474;2022-08-24T14:38:00;996.77;;;930.47;;
15788;SDS011;59075;50.670;6.474;2022-08-24T14:40:42;982.03;;;916.37;;
15788;SDS011;59075;50.670;6.474;2022-08-24T14:43:25;979.63;;;914.50;;
15788;SDS011;59075;50.670;6.474;2022-08-24T14:45:57;978.40;;;913.00;;
15788;SDS011;59075;50.670;6.474;2022-08-24T14:48:31;988.60;;;922.70;;
15788;SDS011;59075;50.670;6.474;2022-08-24T14:51:09;987.37;;;921.63;;
15788;SDS011;59075;50.670;6.474;2022-08-24T14:53:47;981.63;;;916.07;;
15788;SDS011;59075;50.670;6.474;2022-08-24T14:56:26;988.40;;;922.53;;
15788;SDS011;59075;50.670;6.474;2022-08-24T14:59:07;984.27;;;918.00;;
15788;SDS011;59075;50.670;6.474;2022-08-24T15:01:41;982.80;;;917.17;;
15788;SDS011;59075;50.670;6.474;2022-08-24T15:04:20;988.73;;;922.80;;
15788;SDS011;59075;50.670;6.474;2022-08-24T15:07:21;983.27;;;917.70;;
15788;SDS011;59075;50.670;6.474;2022-08-24T15:09:50;986.30;;;920.67;;
15788;SDS011;59075;50.670;6.474;2022-08-24T15:12:22;989.20;;;923.27;;
15788;SDS011;59075;50.670;6.474;2022-08-24T15:14:53;986.23;;;920.33;;
15788;SDS011;59075;50.670;6.474;2022-08-24T15:17:28;981.47;;;915.80;;
15788;SDS011;59075;50.670;6.474;2022-08-24T15:20:07;989.77;;;923.93;;
15788;SDS011;59075;50.670;6.474;2022-08-24T15:22:45;980.27;;;914.70;;
15788;SDS011;59075;50.670;6.474;2022-08-24T15:25:22;984.67;;;918.93;;
15788;SDS011;59075;50.670;6.474;2022-08-24T15:27:54;983.10;;;917.40;;
15788;SDS011;59075;50.670;6.474;2022-08-24T15:30:23;988.33;;;922.50;;
15788;SDS011;59075;50.670;6.474;2022-08-24T15:32:52;988.40;;;922.40;;
15788;SDS011;59075;50.670;6.474;2022-08-24T15:35:29;982.47;;;916.87;;
15788;SDS011;59075;50.670;6.474;2022-08-24T15:40:45;988.00;;;922.00;;
15788;SDS011;59075;50.670;6.474;2022-08-24T15:43:14;985.67;;;919.73;;
15788;SDS011;59075;50.670;6.474;2022-08-24T15:45:42;992.70;;;926.57;;
15788;SDS011;59075;50.670;6.474;2022-08-24T15:48:12;980.53;;;914.80;;
15788;SDS011;59075;50.670;6.474;2022-08-24T15:50:42;991.40;;;925.13;;
15788;SDS011;59075;50.670;6.474;2022-08-24T15:53:27;983.17;;;917.37;;
15788;SDS011;59075;50.670;6.474;2022-08-24T15:55:57;981.37;;;915.57;;
15788;SDS011;59075;50.670;6.474;2022-08-24T15:58:32;988.73;;;922.67;;
15788;SDS011;59075;50.670;6.474;2022-08-24T16:04:06;978.70;;;913.27;;
15788;SDS011;59075;50.670;6.474;2022-08-24T16:06:35;987.67;;;921.67;;
15788;SDS011;59075;50.670;6.474;2022-08-24T16:09:07;989.07;;;922.77;;
15788;SDS011;59075;50.670;6.474;2022-08-24T16:11:39;981.37;;;915.87;;
15788;SDS011;59075;50.670;6.474;2022-08-24T16:14:10;981.73;;;916.13;;
15788;SDS011;59075;50.670;6.474;2022-08-24T16:16:40;986.97;;;921.23;;
15788;SDS011;59075;50.670;6.474;2022-08-24T16:19:16;1002.00;;;934.37;;
15788;SDS011;59075;50.670;6.474;2022-08-24T16:21:52;986.67;;;921.03;;
15788;SDS011;59075;50.670;6.474;2022-08-24T16:24:27;988.60;;;922.53;;
15788;SDS011;59075;50.670;6.474;2022-08-24T16:26:59;987.67;;;921.63;;
15788;SDS011;59075;50.670;6.474;2022-08-24T16:29:45;982.83;;;917.10;;
15788;SDS011;59075;50.670;6.474;2022-08-24T16:32:24;987.63;;;921.73;;
15788;SDS011;59075;50.670;6.474;2022-08-24T16:34:53;980.97;;;915.53;;
15788;SDS011;59075;50.670;6.474;2022-08-24T16:37:21;985.77;;;920.13;;
15788;SDS011;59075;50.670;6.474;2022-08-24T16:39:50;989.40;;;923.43;;
15788;SDS011;59075;50.670;6.474;2022-08-24T16:42:19;979.03;;;913.50;;
15788;SDS011;59075;50.670;6.474;2022-08-24T16:44:49;974.33;;;909.07;;
15788;SDS011;59075;50.670;6.474;2022-08-24T16:47:17;981.47;;;915.77;;
15788;SDS011;59075;50.670;6.474;2022-08-24T16:49:44;981.80;;;916.33;;
15788;SDS011;59075;50.670;6.474;2022-08-24T16:52:11;989.13;;;923.13;;
15788;SDS011;59075;50.670;6.474;2022-08-24T16:54:38;986.37;;;920.07;;
15788;SDS011;59075;50.670;6.474;2022-08-24T16:57:10;980.97;;;915.47;;
15788;SDS011;59075;50.670;6.474;2022-08-24T16:59:38;977.33;;;911.63;;
15788;SDS011;59075;50.670;6.474;2022-08-24T17:02:06;989.73;;;923.67;;
15788;SDS011;59075;50.670;6.474;2022-08-24T17:04:33;989.40;;;923.47;;
15788;SDS011;59075;50.670;6.474;2022-08-24T17:07:00;980.03;;;914.47;;
15788;SDS011;59075;50.670;6.474;2022-08-24T17:09:28;981.80;;;916.13;;
15788;SDS011;59075;50.670;6.474;2022-08-24T17:11:55;984.90;;;919.07;;
15788;SDS011;59075;50.670;6.474;2022-08-24T17:14:23;983.67;;;917.90;;
15788;SDS011;59075;50.670;6.474;2022-08-24T17:16:50;985.23;;;919.43;;
15788;SDS011;59075;50.670;6.474;2022-08-24T17:19:17;989.30;;;922.23;;
15788;SDS011;59075;50.670;6.474;2022-08-24T17:21:45;981.57;;;916.10;;
15788;SDS011;59075;50.670;6.474;2022-08-24T17:24:12;980.83;;;915.17;;
15788;SDS011;59075;50.670;6.474;2022-08-24T17:26:43;986.57;;;920.70;;
15788;SDS011;59075;50.670;6.474;2022-08-24T17:29:09;987.43;;;920.37;;
15788;SDS011;59075;50.670;6.474;2022-08-24T17:31:39;985.13;;;919.27;;
15788;SDS011;59075;50.670;6.474;2022-08-24T17:34:05;977.23;;;911.87;;
15788;SDS011;59075;50.670;6.474;2022-08-24T17:36:33;973.97;;;908.80;;
15788;SDS011;59075;50.670;6.474;2022-08-24T17:39:00;979.30;;;913.70;;
15788;SDS011;59075;50.670;6.474;2022-08-24T17:41:28;985.53;;;919.60;;
15788;SDS011;59075;50.670;6.474;2022-08-24T17:43:55;979.13;;;913.70;;
15788;SDS011;59075;50.670;6.474;2022-08-24T17:46:22;987.43;;;921.63;;
15788;SDS011;59075;50.670;6.474;2022-08-24T17:48:50;980.13;;;914.33;;
15788;SDS011;59075;50.670;6.474;2022-08-24T17:51:17;975.87;;;910.67;;
15788;SDS011;59075;50.670;6.474;2022-08-24T17:53:44;987.27;;;921.20;;
15788;SDS011;59075;50.670;6.474;2022-08-24T17:56:11;991.17;;;925.17;;
15788;SDS011;59075;50.670;6.474;2022-08-24T17:58:39;991.13;;;925.00;;
15788;SDS011;59075;50.670;6.474;2022-08-24T18:01:20;978.17;;;912.93;;
15788;SDS011;59075;50.670;6.474;2022-08-24T18:03:47;968.93;;;904.17;;
15788;SDS011;59075;50.670;6.474;2022-08-24T18:06:15;978.03;;;912.67;;
15788;SDS011;59075;50.670;6.474;2022-08-24T18:08:43;979.63;;;913.77;;
15788;SDS011;59075;50.670;6.474;2022-08-24T18:11:09;981.03;;;915.37;;
15788;SDS011;59075;50.670;6.474;2022-08-24T18:13:36;979.17;;;913.50;;
15788;SDS011;59075;50.670;6.474;2022-08-24T18:16:04;980.93;;;915.40;;
15788;SDS011;59075;50.670;6.474;2022-08-24T18:18:31;973.13;;;907.90;;
15788;SDS011;59075;50.670;6.474;2022-08-24T18:20:59;983.63;;;917.87;;
15788;SDS011;59075;50.670;6.474;2022-08-24T18:23:27;977.63;;;912.17;;
15788;SDS011;59075;50.670;6.474;2022-08-24T18:25:53;975.77;;;910.20;;
15788;SDS011;59075;50.670;6.474;2022-08-24T18:28:21;976.47;;;911.10;;
15788;SDS011;59075;50.670;6.474;2022-08-24T18:30:48;967.90;;;902.57;;
15788;SDS011;59075;50.670;6.474;2022-08-24T18:33:14;975.67;;;910.40;;
15788;SDS011;59075;50.670;6.474;2022-08-24T18:35:42;977.73;;;912.17;;
15788;SDS011;59075;50.670;6.474;2022-08-24T18:38:09;971.27;;;906.10;;
15788;SDS011;59075;50.670;6.474;2022-08-24T18:40:37;973.73;;;908.47;;
15788;SDS011;59075;50.670;6.474;2022-08-24T18:43:05;978.07;;;912.67;;
15788;SDS011;59075;50.670;6.474;2022-08-24T18:45:33;981.77;;;916.33;;
15788;SDS011;59075;50.670;6.474;2022-08-24T18:48:00;972.73;;;907.43;;
15788;SDS011;59075;50.670;6.474;2022-08-24T18:50:27;962.50;;;897.70;;
15788;SDS011;59075;50.670;6.474;2022-08-24T18:52:54;969.00;;;903.97;;
15788;SDS011;59075;50.670;6.474;2022-08-24T18:55:21;969.87;;;904.40;;
15788;SDS011;59075;50.670;6.474;2022-08-24T18:57:50;966.47;;;901.33;;
15788;SDS011;59075;50.670;6.474;2022-08-24T19:00:17;971.13;;;905.67;;
15788;SDS011;59075;50.670;6.474;2022-08-24T19:02:44;984.10;;;918.37;;
15788;SDS011;59075;50.670;6.474;2022-08-24T19:05:14;973.63;;;908.43;;
15788;SDS011;59075;50.670;6.474;2022-08-24T19:07:46;963.43;;;898.80;;
15788;SDS011;59075;50.670;6.474;2022-08-24T19:10:14;981.00;;;915.33;;
15788;SDS011;59075;50.670;6.474;2022-08-24T19:12:42;962.63;;;897.90;;
15788;SDS011;59075;50.670;6.474;2022-08-24T19:15:11;966.70;;;901.53;;
15788;SDS011;59075;50.670;6.474;2022-08-24T19:17:39;968.10;;;902.47;;
15788;SDS011;59075;50.670;6.474;2022-08-24T19:20:06;975.93;;;910.67;;
15788;SDS011;59075;50.670;6.474;2022-08-24T19:22:34;983.30;;;917.73;;
15788;SDS011;59075;50.670;6.474;2022-08-24T19:25:02;964.60;;;899.83;;
15788;SDS011;59075;50.670;6.474;2022-08-24T19:27:29;981.37;;;915.87;;
15788;SDS011;59075;50.670;6.474;2022-08-24T19:29:56;971.43;;;906.33;;
15788;SDS011;59075;50.670;6.474;2022-08-24T19:32:25;971.33;;;906.33;;
15788;SDS011;59075;50.670;6.474;2022-08-24T19:34:53;979.70;;;913.90;;
15788;SDS011;59075;50.670;6.474;2022-08-24T19:37:21;967.53;;;902.43;;
15788;SDS011;59075;50.670;6.474;2022-08-24T19:39:48;985.83;;;920.10;;
15788;SDS011;59075;50.670;6.474;2022-08-24T19:42:15;971.47;;;906.57;;
15788;SDS011;59075;50.670;6.474;2022-08-24T19:44:42;970.73;;;905.80;;
15788;SDS011;59075;50.670;6.474;2022-08-24T19:47:27;973.07;;;908.37;;
15788;SDS011;59075;50.670;6.474;2022-08-24T19:49:54;970.17;;;905.17;;
15788;SDS011;59075;50.670;6.474;2022-08-24T19:52:21;973.53;;;908.30;;
15788;SDS011;59075;50.670;6.474;2022-08-24T19:54:48;965.60;;;900.77;;
15788;SDS011;59075;50.670;6.474;2022-08-24T19:57:28;974.70;;;909.50;;
15788;SDS011;59075;50.670;6.474;2022-08-24T19:59:56;970.43;;;905.53;;
15788;SDS011;59075;50.670;6.474;2022-08-24T20:02:25;975.27;;;910.27;;
15788;SDS011;59075;50.670;6.474;2022-08-24T20:04:53;975.40;;;910.50;;
15788;SDS011;59075;50.670;6.474;2022-08-24T20:07:20;972.00;;;907.23;;
15788;SDS011;59075;50.670;6.474;2022-08-24T20:09:47;974.17;;;909.07;;
15788;SDS011;59075;50.670;6.474;2022-08-24T20:12:13;978.57;;;913.30;;
15788;SDS011;59075;50.670;6.474;2022-08-24T20:14:40;970.83;;;905.83;;
15788;SDS011;59075;50.670;6.474;2022-08-24T20:17:06;973.27;;;908.37;;
15788;SDS011;59075;50.670;6.474;2022-08-24T20:19:35;969.40;;;904.63;;